sensor_id;sensor_type;location;lat;lon;timestamp;P1;P2;P0
43280;PMS5003;62175;49.416;8.690;2022-10-16T00:01:14;2;2;
43280;PMS5003;62175;49.416;8.690;2022-10-16T00:03:43;4;4;
43280;PMS5003;62175;49.416;8.690;2022-10-16T00:06:11;1;1;
43280;PMS5003;62175;49.416;8.690;2022-10-16T00:08:39;2;2;
43280;PMS5003;62175;49.416;8.690;2022-10-16T00:11:07;3;3;
43280;PMS5003;62175;49.416;8.690;2022-10-16T00:13:37;3;3;
43280;PMS5003;62175;49.416;8.690;2022-10-16T00:16:06;3;3;
43280;PMS5003;62175;49.416;8.690;2022-10-16T00:18:34;3;3;
43280;PMS5003;62175;49.416;8.690;2022-10-16T00:21:02;2;2;
43280;PMS5003;62175;49.416;8.690;2022-10-16T00:23:31;1;1;
43280;PMS5003;62175;49.416;8.690;2022-10-16T00:25:59;3;3;
43280;PMS5003;62175;49.416;8.690;2022-10-16T00:28:28;2;2;
43280;PMS5003;62175;49.416;8.690;2022-10-16T00:30:56;3;3;
43280;PMS5003;62175;49.416;8.690;2022-10-16T00:33:24;1;1;
43280;PMS5003;62175;49.416;8.690;2022-10-16T00:35:51;3;3;
43280;PMS5003;62175;49.416;8.690;2022-10-16T00:38:18;2;2;
43280;PMS5003;62175;49.416;8.690;2022-10-16T00:40:45;2;2;
43280;PMS5003;62175;49.416;8.690;2022-10-16T00:43:12;3;3;
43280;PMS5003;62175;49.416;8.690;2022-10-16T00:45:58;4;3;
43280;PMS5003;62175;49.416;8.690;2022-10-16T00:48:26;2;2;
43280;PMS5003;62175;49.416;8.690;2022-10-16T00:50:53;2;2;
43280;PMS5003;62175;49.416;8.690;2022-10-16T00:53:21;3;2;
43280;PMS5003;62175;49.416;8.690;2022-10-16T00:55:49;2;2;
43280;PMS5003;62175;49.416;8.690;2022-10-16T00:58:16;2;2;
43280;PMS5003;62175;49.416;8.690;2022-10-16T01:00:43;1;1;
43280;PMS5003;62175;49.416;8.690;2022-10-16T01:03:27;2;1;
43280;PMS5003;62175;49.416;8.690;2022-10-16T01:06:30;2;2;
43280;PMS5003;62175;49.416;8.690;2022-10-16T01:09:11;2;2;
43280;PMS5003;62175;49.416;8.690;2022-10-16T01:11:44;2;2;
43280;PMS5003;62175;49.416;8.690;2022-10-16T01:14:21;2;2;
43280;PMS5003;62175;49.416;8.690;2022-10-16T01:16:53;5;2;
43280;PMS5003;62175;49.416;8.690;2022-10-16T01:19:31;3;3;
43280;PMS5003;62175;49.416;8.690;2022-10-16T01:22:10;2;2;
43280;PMS5003;62175;49.416;8.690;2022-10-16T01:24:39;2;2;
43280;PMS5003;62175;49.416;8.690;2022-10-16T01:27:10;3;3;
43280;PMS5003;62175;49.416;8.690;2022-10-16T01:29:41;4;3;
43280;PMS5003;62175;49.416;8.690;2022-10-16T01:32:18;1;1;
43280;PMS5003;62175;49.416;8.690;2022-10-16T01:34:49;2;1;
43280;PMS5003;62175;49.416;8.690;2022-10-16T01:37:22;2;2;
43280;PMS5003;62175;49.416;8.690;2022-10-16T01:39:56;2;2;
43280;PMS5003;62175;49.416;8.690;2022-10-16T01:42:28;3;3;
43280;PMS5003;62175;49.416;8.690;2022-10-16T01:45:01;3;3;
43280;PMS5003;62175;49.416;8.690;2022-10-16T01:47:30;3;2;
43280;PMS5003;62175;49.416;8.690;2022-10-16T01:50:00;2;2;
43280;PMS5003;62175;49.416;8.690;2022-10-16T01:52:30;2;2;
43280;PMS5003;62175;49.416;8.690;2022-10-16T01:55:01;1;1;
43280;PMS5003;62175;49.416;8.690;2022-10-16T01:57:31;3;2;
43280;PMS5003;62175;49.416;8.690;2022-10-16T02:00:03;2;2;
43280;PMS5003;62175;49.416;8.690;2022-10-16T02:02:35;1;1;
43280;PMS5003;62175;49.416;8.690;2022-10-16T02:05:04;2;2;
43280;PMS5003;62175;49.416;8.690;2022-10-16T02:07:36;1;1;
43280;PMS5003;62175;49.416;8.690;2022-10-16T02:10:04;2;2;
43280;PMS5003;62175;49.416;8.690;2022-10-16T02:12:32;1;0;
43280;PMS5003;62175;49.416;8.690;2022-10-16T02:15:02;3;3;
43280;PMS5003;62175;49.416;8.690;2022-10-16T02:17:30;3;3;
43280;PMS5003;62175;49.416;8.690;2022-10-16T02:19:57;3;3;
43280;PMS5003;62175;49.416;8.690;2022-10-16T02:22:26;2;2;
43280;PMS5003;62175;49.416;8.690;2022-10-16T02:24:57;3;3;
43280;PMS5003;62175;49.416;8.690;2022-10-16T02:27:30;2;2;
43280;PMS5003;62175;49.416;8.690;2022-10-16T02:30:04;3;3;
43280;PMS5003;62175;49.416;8.690;2022-10-16T02:32:36;2;2;
43280;PMS5003;62175;49.416;8.690;2022-10-16T02:35:08;2;2;
43280;PMS5003;62175;49.416;8.690;2022-10-16T02:37:36;4;3;
43280;PMS5003;62175;49.416;8.690;2022-10-16T02:40:07;2;2;
43280;PMS5003;62175;49.416;8.690;2022-10-16T02:42:36;3;3;
43280;PMS5003;62175;49.416;8.690;2022-10-16T02:45:05;3;3;
43280;PMS5003;62175;49.416;8.690;2022-10-16T02:47:35;2;2;
43280;PMS5003;62175;49.416;8.690;2022-10-16T02:50:03;2;2;
43280;PMS5003;62175;49.416;8.690;2022-10-16T02:52:31;3;3;
43280;PMS5003;62175;49.416;8.690;2022-10-16T02:54:58;3;3;
43280;PMS5003;62175;49.416;8.690;2022-10-16T02:57:25;2;2;
43280;PMS5003;62175;49.416;8.690;2022-10-16T02:59:52;3;3;
43280;PMS5003;62175;49.416;8.690;2022-10-16T03:02:19;3;3;
43280;PMS5003;62175;49.416;8.690;2022-10-16T03:04:46;3;3;
43280;PMS5003;62175;49.416;8.690;2022-10-16T03:07:14;4;4;
43280;PMS5003;62175;49.416;8.690;2022-10-16T03:09:40;2;2;
43280;PMS5003;62175;49.416;8.690;2022-10-16T03:12:07;2;2;
43280;PMS5003;62175;49.416;8.690;2022-10-16T03:14:34;1;1;
43280;PMS5003;62175;49.416;8.690;2022-10-16T03:17:01;2;2;
43280;PMS5003;62175;49.416;8.690;2022-10-16T03:19:29;3;2;
43280;PMS5003;62175;49.416;8.690;2022-10-16T03:21:56;3;1;
43280;PMS5003;62175;49.416;8.690;2022-10-16T03:24:23;2;2;
43280;PMS5003;62175;49.416;8.690;2022-10-16T03:26:50;2;2;
43280;PMS5003;62175;49.416;8.690;2022-10-16T03:29:17;4;3;
43280;PMS5003;62175;49.416;8.690;2022-10-16T03:31:44;2;2;
43280;PMS5003;62175;49.416;8.690;2022-10-16T03:34:11;2;2;
43280;PMS5003;62175;49.416;8.690;2022-10-16T03:36:38;3;2;
43280;PMS5003;62175;49.416;8.690;2022-10-16T03:39:04;3;3;
43280;PMS5003;62175;49.416;8.690;2022-10-16T03:41:31;2;2;
43280;PMS5003;62175;49.416;8.690;2022-10-16T03:43:59;2;2;
43280;PMS5003;62175;49.416;8.690;2022-10-16T03:46:26;4;4;
43280;PMS5003;62175;49.416;8.690;2022-10-16T03:48:53;2;2;
43280;PMS5003;62175;49.416;8.690;2022-10-16T03:51:20;2;2;
43280;PMS5003;62175;49.416;8.690;2022-10-16T03:53:47;2;2;
43280;PMS5003;62175;49.416;8.690;2022-10-16T03:56:14;3;2;
43280;PMS5003;62175;49.416;8.690;2022-10-16T03:58:41;2;2;
43280;PMS5003;62175;49.416;8.690;2022-10-16T04:01:08;1;1;
43280;PMS5003;62175;49.416;8.690;2022-10-16T04:03:35;3;3;
43280;PMS5003;62175;49.416;8.690;2022-10-16T04:06:02;2;2;
43280;PMS5003;62175;49.416;8.690;2022-10-16T04:08:30;2;2;
43280;PMS5003;62175;49.416;8.690;2022-10-16T04:10:57;1;1;
43280;PMS5003;62175;49.416;8.690;2022-10-16T04:13:24;1;1;
43280;PMS5003;62175;49.416;8.690;2022-10-16T04:15:51;2;2;
43280;PMS5003;62175;49.416;8.690;2022-10-16T04:18:18;3;2;
43280;PMS5003;62175;49.416;8.690;2022-10-16T04:20:45;2;2;
43280;PMS5003;62175;49.416;8.690;2022-10-16T04:23:12;3;3;
43280;PMS5003;62175;49.416;8.690;2022-10-16T04:25:39;1;1;
43280;PMS5003;62175;49.416;8.690;2022-10-16T04:28:06;2;2;
43280;PMS5003;62175;49.416;8.690;2022-10-16T04:30:33;3;3;
43280;PMS5003;62175;49.416;8.690;2022-10-16T04:33:00;2;2;
43280;PMS5003;62175;49.416;8.690;2022-10-16T04:35:27;1;1;
43280;PMS5003;62175;49.416;8.690;2022-10-16T04:37:54;3;3;
43280;PMS5003;62175;49.416;8.690;2022-10-16T04:40:24;3;2;
43280;PMS5003;62175;49.416;8.690;2022-10-16T04:42:52;2;2;
43280;PMS5003;62175;49.416;8.690;2022-10-16T04:45:19;3;3;
43280;PMS5003;62175;49.416;8.690;2022-10-16T04:47:46;2;2;
43280;PMS5003;62175;49.416;8.690;2022-10-16T04:50:13;3;3;
43280;PMS5003;62175;49.416;8.690;2022-10-16T04:52:40;3;2;
43280;PMS5003;62175;49.416;8.690;2022-10-16T04:55:07;1;1;
43280;PMS5003;62175;49.416;8.690;2022-10-16T04:57:34;3;3;
43280;PMS5003;62175;49.416;8.690;2022-10-16T05:00:01;3;3;
43280;PMS5003;62175;49.416;8.690;2022-10-16T05:02:29;3;2;
43280;PMS5003;62175;49.416;8.690;2022-10-16T05:04:56;4;4;
43280;PMS5003;62175;49.416;8.690;2022-10-16T05:07:23;1;1;
43280;PMS5003;62175;49.416;8.690;2022-10-16T05:09:50;7;7;
43280;PMS5003;62175;49.416;8.690;2022-10-16T05:12:17;1;1;
43280;PMS5003;62175;49.416;8.690;2022-10-16T05:14:44;3;3;
43280;PMS5003;62175;49.416;8.690;2022-10-16T05:17:11;1;1;
43280;PMS5003;62175;49.416;8.690;2022-10-16T05:19:38;4;3;
43280;PMS5003;62175;49.416;8.690;2022-10-16T05:22:05;4;4;
43280;PMS5003;62175;49.416;8.690;2022-10-16T05:24:32;2;1;
43280;PMS5003;62175;49.416;8.690;2022-10-16T05:26:59;4;4;
43280;PMS5003;62175;49.416;8.690;2022-10-16T05:29:26;3;3;
43280;PMS5003;62175;49.416;8.690;2022-10-16T05:31:53;3;2;
43280;PMS5003;62175;49.416;8.690;2022-10-16T05:34:20;2;2;
43280;PMS5003;62175;49.416;8.690;2022-10-16T05:36:47;2;2;
43280;PMS5003;62175;49.416;8.690;2022-10-16T05:39:15;2;2;
43280;PMS5003;62175;49.416;8.690;2022-10-16T05:41:42;2;2;
43280;PMS5003;62175;49.416;8.690;2022-10-16T05:44:09;1;1;
43280;PMS5003;62175;49.416;8.690;2022-10-16T05:46:37;3;3;
43280;PMS5003;62175;49.416;8.690;2022-10-16T05:49:04;2;2;
43280;PMS5003;62175;49.416;8.690;2022-10-16T05:51:31;1;1;
43280;PMS5003;62175;49.416;8.690;2022-10-16T05:53:58;2;2;
43280;PMS5003;62175;49.416;8.690;2022-10-16T05:56:25;1;1;
43280;PMS5003;62175;49.416;8.690;2022-10-16T05:58:52;3;3;
43280;PMS5003;62175;49.416;8.690;2022-10-16T06:01:19;3;3;
43280;PMS5003;62175;49.416;8.690;2022-10-16T06:03:47;2;2;
43280;PMS5003;62175;49.416;8.690;2022-10-16T06:06:14;4;3;
43280;PMS5003;62175;49.416;8.690;2022-10-16T06:08:43;3;2;
43280;PMS5003;62175;49.416;8.690;2022-10-16T06:11:12;3;3;
43280;PMS5003;62175;49.416;8.690;2022-10-16T06:13:41;3;2;
43280;PMS5003;62175;49.416;8.690;2022-10-16T06:16:09;2;2;
43280;PMS5003;62175;49.416;8.690;2022-10-16T06:18:37;3;3;
43280;PMS5003;62175;49.416;8.690;2022-10-16T06:21:07;2;2;
43280;PMS5003;62175;49.416;8.690;2022-10-16T06:23:35;3;3;
43280;PMS5003;62175;49.416;8.690;2022-10-16T06:26:06;3;2;
43280;PMS5003;62175;49.416;8.690;2022-10-16T06:28:34;2;2;
43280;PMS5003;62175;49.416;8.690;2022-10-16T06:31:02;3;3;
43280;PMS5003;62175;49.416;8.690;2022-10-16T06:33:30;2;2;
43280;PMS5003;62175;49.416;8.690;2022-10-16T06:36:00;4;3;
43280;PMS5003;62175;49.416;8.690;2022-10-16T06:38:27;2;2;
43280;PMS5003;62175;49.416;8.690;2022-10-16T06:40:54;1;1;
43280;PMS5003;62175;49.416;8.690;2022-10-16T06:43:22;2;2;
43280;PMS5003;62175;49.416;8.690;2022-10-16T06:45:51;4;4;
43280;PMS5003;62175;49.416;8.690;2022-10-16T06:48:18;6;4;
43280;PMS5003;62175;49.416;8.690;2022-10-16T06:50:54;3;3;
43280;PMS5003;62175;49.416;8.690;2022-10-16T06:53:22;5;4;
43280;PMS5003;62175;49.416;8.690;2022-10-16T06:55:49;3;3;
43280;PMS5003;62175;49.416;8.690;2022-10-16T06:58:17;4;4;
43280;PMS5003;62175;49.416;8.690;2022-10-16T07:00:44;3;3;
43280;PMS5003;62175;49.416;8.690;2022-10-16T07:03:12;3;3;
43280;PMS5003;62175;49.416;8.690;2022-10-16T07:05:41;3;2;
43280;PMS5003;62175;49.416;8.690;2022-10-16T07:08:09;4;3;
43280;PMS5003;62175;49.416;8.690;2022-10-16T07:10:36;1;1;
43280;PMS5003;62175;49.416;8.690;2022-10-16T07:13:03;3;2;
43280;PMS5003;62175;49.416;8.690;2022-10-16T07:15:30;2;2;
43280;PMS5003;62175;49.416;8.690;2022-10-16T07:17:58;2;2;
43280;PMS5003;62175;49.416;8.690;2022-10-16T07:20:25;4;3;
43280;PMS5003;62175;49.416;8.690;2022-10-16T07:22:52;1;1;
43280;PMS5003;62175;49.416;8.690;2022-10-16T07:25:19;4;3;
43280;PMS5003;62175;49.416;8.690;2022-10-16T07:27:46;4;4;
43280;PMS5003;62175;49.416;8.690;2022-10-16T07:30:13;3;2;
43280;PMS5003;62175;49.416;8.690;2022-10-16T07:32:40;4;3;
43280;PMS5003;62175;49.416;8.690;2022-10-16T07:35:07;1;1;
43280;PMS5003;62175;49.416;8.690;2022-10-16T07:37:34;2;2;
43280;PMS5003;62175;49.416;8.690;2022-10-16T07:40:01;3;3;
43280;PMS5003;62175;49.416;8.690;2022-10-16T07:42:28;3;3;
43280;PMS5003;62175;49.416;8.690;2022-10-16T07:44:55;5;4;
43280;PMS5003;62175;49.416;8.690;2022-10-16T07:47:22;4;4;
43280;PMS5003;62175;49.416;8.690;2022-10-16T07:49:49;3;3;
43280;PMS5003;62175;49.416;8.690;2022-10-16T07:52:16;2;2;
43280;PMS5003;62175;49.416;8.690;2022-10-16T07:54:43;3;3;
43280;PMS5003;62175;49.416;8.690;2022-10-16T07:57:10;3;3;
43280;PMS5003;62175;49.416;8.690;2022-10-16T07:59:37;3;3;
43280;PMS5003;62175;49.416;8.690;2022-10-16T08:02:04;3;3;
43280;PMS5003;62175;49.416;8.690;2022-10-16T08:04:31;3;2;
43280;PMS5003;62175;49.416;8.690;2022-10-16T08:06:58;1;1;
43280;PMS5003;62175;49.416;8.690;2022-10-16T08:09:25;1;1;
43280;PMS5003;62175;49.416;8.690;2022-10-16T08:11:52;3;3;
43280;PMS5003;62175;49.416;8.690;2022-10-16T08:14:19;2;2;
43280;PMS5003;62175;49.416;8.690;2022-10-16T08:16:45;2;2;
43280;PMS5003;62175;49.416;8.690;2022-10-16T08:19:12;3;3;
43280;PMS5003;62175;49.416;8.690;2022-10-16T08:21:40;2;2;
43280;PMS5003;62175;49.416;8.690;2022-10-16T08:24:06;4;4;
43280;PMS5003;62175;49.416;8.690;2022-10-16T08:26:33;3;3;
43280;PMS5003;62175;49.416;8.690;2022-10-16T08:29:00;2;2;
43280;PMS5003;62175;49.416;8.690;2022-10-16T08:31:27;3;3;
43280;PMS5003;62175;49.416;8.690;2022-10-16T08:33:54;3;3;
43280;PMS5003;62175;49.416;8.690;2022-10-16T08:36:21;3;3;
43280;PMS5003;62175;49.416;8.690;2022-10-16T08:38:49;2;2;
43280;PMS5003;62175;49.416;8.690;2022-10-16T08:41:22;3;2;
43280;PMS5003;62175;49.416;8.690;2022-10-16T08:44:35;2;2;
43280;PMS5003;62175;49.416;8.690;2022-10-16T08:47:26;4;3;
43280;PMS5003;62175;49.416;8.690;2022-10-16T08:50:08;3;3;
43280;PMS5003;62175;49.416;8.690;2022-10-16T08:52:39;2;2;
43280;PMS5003;62175;49.416;8.690;2022-10-16T08:55:08;2;2;
43280;PMS5003;62175;49.416;8.690;2022-10-16T08:57:47;2;2;
43280;PMS5003;62175;49.416;8.690;2022-10-16T09:00:14;2;2;
43280;PMS5003;62175;49.416;8.690;2022-10-16T09:02:44;3;2;
43280;PMS5003;62175;49.416;8.690;2022-10-16T09:05:24;3;3;
43280;PMS5003;62175;49.416;8.690;2022-10-16T09:08:06;3;2;
43280;PMS5003;62175;49.416;8.690;2022-10-16T09:10:45;3;3;
43280;PMS5003;62175;49.416;8.690;2022-10-16T09:13:23;1;1;
43280;PMS5003;62175;49.416;8.690;2022-10-16T09:15:56;1;1;
43280;PMS5003;62175;49.416;8.690;2022-10-16T09:18:37;1;1;
43280;PMS5003;62175;49.416;8.690;2022-10-16T09:21:14;3;3;
43280;PMS5003;62175;49.416;8.690;2022-10-16T09:23:46;1;1;
43280;PMS5003;62175;49.416;8.690;2022-10-16T09:26:14;2;2;
43280;PMS5003;62175;49.416;8.690;2022-10-16T09:28:42;4;4;
43280;PMS5003;62175;49.416;8.690;2022-10-16T09:31:12;5;4;
43280;PMS5003;62175;49.416;8.690;2022-10-16T09:33:45;2;2;
43280;PMS5003;62175;49.416;8.690;2022-10-16T09:36:16;2;2;
43280;PMS5003;62175;49.416;8.690;2022-10-16T09:38:46;3;3;
43280;PMS5003;62175;49.416;8.690;2022-10-16T09:41:15;3;3;
43280;PMS5003;62175;49.416;8.690;2022-10-16T09:43:46;2;2;
43280;PMS5003;62175;49.416;8.690;2022-10-16T09:46:22;2;2;
43280;PMS5003;62175;49.416;8.690;2022-10-16T09:48:53;3;3;
43280;PMS5003;62175;49.416;8.690;2022-10-16T09:51:24;2;2;
43280;PMS5003;62175;49.416;8.690;2022-10-16T09:53:54;2;2;
43280;PMS5003;62175;49.416;8.690;2022-10-16T09:56:24;4;4;
43280;PMS5003;62175;49.416;8.690;2022-10-16T09:58:53;2;2;
43280;PMS5003;62175;49.416;8.690;2022-10-16T10:01:24;3;3;
43280;PMS5003;62175;49.416;8.690;2022-10-16T10:03:56;5;4;
43280;PMS5003;62175;49.416;8.690;2022-10-16T10:06:25;3;3;
43280;PMS5003;62175;49.416;8.690;2022-10-16T10:08:56;2;2;
43280;PMS5003;62175;49.416;8.690;2022-10-16T10:11:42;3;3;
43280;PMS5003;62175;49.416;8.690;2022-10-16T10:14:17;2;2;
43280;PMS5003;62175;49.416;8.690;2022-10-16T10:16:47;1;1;
43280;PMS5003;62175;49.416;8.690;2022-10-16T10:19:16;3;3;
43280;PMS5003;62175;49.416;8.690;2022-10-16T10:21:44;4;3;
43280;PMS5003;62175;49.416;8.690;2022-10-16T10:24:11;3;3;
43280;PMS5003;62175;49.416;8.690;2022-10-16T10:26:43;3;3;
43280;PMS5003;62175;49.416;8.690;2022-10-16T10:29:18;4;4;
43280;PMS5003;62175;49.416;8.690;2022-10-16T10:31:57;2;2;
43280;PMS5003;62175;49.416;8.690;2022-10-16T10:34:37;3;3;
43280;PMS5003;62175;49.416;8.690;2022-10-16T10:37:22;2;2;
43280;PMS5003;62175;49.416;8.690;2022-10-16T10:40:00;3;3;
43280;PMS5003;62175;49.416;8.690;2022-10-16T10:42:36;2;2;
43280;PMS5003;62175;49.416;8.690;2022-10-16T10:45:16;3;3;
43280;PMS5003;62175;49.416;8.690;2022-10-16T10:47:53;2;2;
43280;PMS5003;62175;49.416;8.690;2022-10-16T10:50:32;3;3;
43280;PMS5003;62175;49.416;8.690;2022-10-16T10:53:08;3;2;
43280;PMS5003;62175;49.416;8.690;2022-10-16T10:55:45;4;4;
43280;PMS5003;62175;49.416;8.690;2022-10-16T10:58:27;6;5;
43280;PMS5003;62175;49.416;8.690;2022-10-16T11:01:21;4;3;
43280;PMS5003;62175;49.416;8.690;2022-10-16T11:03:57;3;3;
43280;PMS5003;62175;49.416;8.690;2022-10-16T11:06:42;4;4;
43280;PMS5003;62175;49.416;8.690;2022-10-16T11:09:15;4;4;
43280;PMS5003;62175;49.416;8.690;2022-10-16T11:11:45;3;3;
43280;PMS5003;62175;49.416;8.690;2022-10-16T11:14:17;5;5;
43280;PMS5003;62175;49.416;8.690;2022-10-16T11:16:50;3;3;
43280;PMS5003;62175;49.416;8.690;2022-10-16T11:19:26;4;3;
43280;PMS5003;62175;49.416;8.690;2022-10-16T11:22:03;3;3;
43280;PMS5003;62175;49.416;8.690;2022-10-16T11:24:44;4;4;
43280;PMS5003;62175;49.416;8.690;2022-10-16T11:27:16;3;3;
43280;PMS5003;62175;49.416;8.690;2022-10-16T11:29:48;4;3;
43280;PMS5003;62175;49.416;8.690;2022-10-16T11:32:22;3;3;
43280;PMS5003;62175;49.416;8.690;2022-10-16T11:34:57;6;5;
43280;PMS5003;62175;49.416;8.690;2022-10-16T11:37:30;4;4;
43280;PMS5003;62175;49.416;8.690;2022-10-16T11:40:03;5;5;
43280;PMS5003;62175;49.416;8.690;2022-10-16T11:42:44;5;5;
43280;PMS5003;62175;49.416;8.690;2022-10-16T11:45:22;5;5;
43280;PMS5003;62175;49.416;8.690;2022-10-16T11:47:58;4;3;
43280;PMS5003;62175;49.416;8.690;2022-10-16T11:50:33;6;6;
43280;PMS5003;62175;49.416;8.690;2022-10-16T11:53:07;4;4;
43280;PMS5003;62175;49.416;8.690;2022-10-16T11:55:42;6;5;
43280;PMS5003;62175;49.416;8.690;2022-10-16T11:58:13;4;4;
43280;PMS5003;62175;49.416;8.690;2022-10-16T12:00:47;5;5;
43280;PMS5003;62175;49.416;8.690;2022-10-16T12:03:22;5;4;
43280;PMS5003;62175;49.416;8.690;2022-10-16T12:06:00;4;3;
43280;PMS5003;62175;49.416;8.690;2022-10-16T12:08:39;4;4;
43280;PMS5003;62175;49.416;8.690;2022-10-16T12:11:19;4;4;
43280;PMS5003;62175;49.416;8.690;2022-10-16T12:13:50;5;5;
43280;PMS5003;62175;49.416;8.690;2022-10-16T12:16:22;4;4;
43280;PMS5003;62175;49.416;8.690;2022-10-16T12:18:49;4;4;
43280;PMS5003;62175;49.416;8.690;2022-10-16T12:21:36;4;4;
43280;PMS5003;62175;49.416;8.690;2022-10-16T12:24:03;5;4;
43280;PMS5003;62175;49.416;8.690;2022-10-16T12:26:32;6;4;
43280;PMS5003;62175;49.416;8.690;2022-10-16T12:29:13;4;4;
43280;PMS5003;62175;49.416;8.690;2022-10-16T12:31:48;5;3;
43280;PMS5003;62175;49.416;8.690;2022-10-16T12:34:20;2;2;
43280;PMS5003;62175;49.416;8.690;2022-10-16T12:36:50;6;6;
43280;PMS5003;62175;49.416;8.690;2022-10-16T12:39:20;6;5;
43280;PMS5003;62175;49.416;8.690;2022-10-16T12:42:00;4;4;
43280;PMS5003;62175;49.416;8.690;2022-10-16T12:44:31;4;4;
43280;PMS5003;62175;49.416;8.690;2022-10-16T12:47:00;4;4;
43280;PMS5003;62175;49.416;8.690;2022-10-16T12:49:30;5;5;
43280;PMS5003;62175;49.416;8.690;2022-10-16T12:52:02;5;4;
43280;PMS5003;62175;49.416;8.690;2022-10-16T12:54:30;3;3;
43280;PMS5003;62175;49.416;8.690;2022-10-16T12:57:09;6;5;
43280;PMS5003;62175;49.416;8.690;2022-10-16T12:59:52;4;3;
43280;PMS5003;62175;49.416;8.690;2022-10-16T13:02:34;4;4;
43280;PMS5003;62175;49.416;8.690;2022-10-16T13:05:17;5;4;
43280;PMS5003;62175;49.416;8.690;2022-10-16T13:07:55;5;5;
43280;PMS5003;62175;49.416;8.690;2022-10-16T13:10:32;3;3;
43280;PMS5003;62175;49.416;8.690;2022-10-16T13:15:21;3;3;
43280;PMS5003;62175;49.416;8.690;2022-10-16T13:17:58;6;6;
43280;PMS5003;62175;49.416;8.690;2022-10-16T13:20:35;4;4;
43280;PMS5003;62175;49.416;8.690;2022-10-16T13:23:15;4;4;
43280;PMS5003;62175;49.416;8.690;2022-10-16T13:25:52;4;4;
43280;PMS5003;62175;49.416;8.690;2022-10-16T13:28:28;3;3;
43280;PMS5003;62175;49.416;8.690;2022-10-16T13:30:59;5;5;
43280;PMS5003;62175;49.416;8.690;2022-10-16T13:33:29;5;4;
43280;PMS5003;62175;49.416;8.690;2022-10-16T13:35:59;4;4;
43280;PMS5003;62175;49.416;8.690;2022-10-16T13:38:28;3;3;
43280;PMS5003;62175;49.416;8.690;2022-10-16T13:40:57;4;4;
43280;PMS5003;62175;49.416;8.690;2022-10-16T13:43:27;7;5;
43280;PMS5003;62175;49.416;8.690;2022-10-16T13:46:00;5;5;
43280;PMS5003;62175;49.416;8.690;2022-10-16T13:48:30;4;4;
43280;PMS5003;62175;49.416;8.690;2022-10-16T13:51:00;5;5;
43280;PMS5003;62175;49.416;8.690;2022-10-16T13:53:30;5;4;
43280;PMS5003;62175;49.416;8.690;2022-10-16T13:55:59;5;4;
43280;PMS5003;62175;49.416;8.690;2022-10-16T13:58:28;5;4;
43280;PMS5003;62175;49.416;8.690;2022-10-16T14:00:56;4;4;
43280;PMS5003;62175;49.416;8.690;2022-10-16T14:03:27;3;3;
43280;PMS5003;62175;49.416;8.690;2022-10-16T14:05:57;5;5;
43280;PMS5003;62175;49.416;8.690;2022-10-16T14:08:28;4;3;
43280;PMS5003;62175;49.416;8.690;2022-10-16T14:10:57;3;3;
43280;PMS5003;62175;49.416;8.690;2022-10-16T14:13:29;4;4;
43280;PMS5003;62175;49.416;8.690;2022-10-16T14:16:02;4;4;
43280;PMS5003;62175;49.416;8.690;2022-10-16T14:18:33;7;7;
43280;PMS5003;62175;49.416;8.690;2022-10-16T14:21:04;5;5;
43280;PMS5003;62175;49.416;8.690;2022-10-16T14:23:35;4;4;
43280;PMS5003;62175;49.416;8.690;2022-10-16T14:26:12;5;4;
43280;PMS5003;62175;49.416;8.690;2022-10-16T14:28:42;5;5;
43280;PMS5003;62175;49.416;8.690;2022-10-16T14:31:27;4;4;
43280;PMS5003;62175;49.416;8.690;2022-10-16T14:33:57;6;5;
43280;PMS5003;62175;49.416;8.690;2022-10-16T14:36:26;4;4;
43280;PMS5003;62175;49.416;8.690;2022-10-16T14:38:58;4;3;
43280;PMS5003;62175;49.416;8.690;2022-10-16T14:41:28;2;2;
43280;PMS5003;62175;49.416;8.690;2022-10-16T14:43:57;5;5;
43280;PMS5003;62175;49.416;8.690;2022-10-16T14:46:30;5;4;
43280;PMS5003;62175;49.416;8.690;2022-10-16T14:49:03;4;3;
43280;PMS5003;62175;49.416;8.690;2022-10-16T14:51:41;4;3;
43280;PMS5003;62175;49.416;8.690;2022-10-16T14:54:09;4;4;
43280;PMS5003;62175;49.416;8.690;2022-10-16T14:56:42;5;5;
43280;PMS5003;62175;49.416;8.690;2022-10-16T14:59:14;5;5;
43280;PMS5003;62175;49.416;8.690;2022-10-16T15:01:45;6;5;
43280;PMS5003;62175;49.416;8.690;2022-10-16T15:04:13;4;4;
43280;PMS5003;62175;49.416;8.690;2022-10-16T15:06:40;5;5;
43280;PMS5003;62175;49.416;8.690;2022-10-16T15:09:07;6;5;
43280;PMS5003;62175;49.416;8.690;2022-10-16T15:11:34;6;5;
43280;PMS5003;62175;49.416;8.690;2022-10-16T15:14:02;5;5;
43280;PMS5003;62175;49.416;8.690;2022-10-16T15:16:30;6;6;
43280;PMS5003;62175;49.416;8.690;2022-10-16T15:18:57;5;4;
43280;PMS5003;62175;49.416;8.690;2022-10-16T15:21:26;7;6;
43280;PMS5003;62175;49.416;8.690;2022-10-16T15:23:57;5;4;
43280;PMS5003;62175;49.416;8.690;2022-10-16T15:26:25;6;5;
43280;PMS5003;62175;49.416;8.690;2022-10-16T15:28:54;7;6;
43280;PMS5003;62175;49.416;8.690;2022-10-16T15:31:21;6;6;
43280;PMS5003;62175;49.416;8.690;2022-10-16T15:33:49;6;6;
43280;PMS5003;62175;49.416;8.690;2022-10-16T15:36:17;4;4;
43280;PMS5003;62175;49.416;8.690;2022-10-16T15:38:44;6;4;
43280;PMS5003;62175;49.416;8.690;2022-10-16T15:41:11;5;5;
43280;PMS5003;62175;49.416;8.690;2022-10-16T15:43:38;5;5;
43280;PMS5003;62175;49.416;8.690;2022-10-16T15:46:06;5;5;
43280;PMS5003;62175;49.416;8.690;2022-10-16T15:48:37;5;4;
43280;PMS5003;62175;49.416;8.690;2022-10-16T15:51:04;7;7;
43280;PMS5003;62175;49.416;8.690;2022-10-16T15:53:33;8;6;
43280;PMS5003;62175;49.416;8.690;2022-10-16T15:56:01;7;7;
43280;PMS5003;62175;49.416;8.690;2022-10-16T15:58:28;6;6;
43280;PMS5003;62175;49.416;8.690;2022-10-16T16:00:55;6;6;
43280;PMS5003;62175;49.416;8.690;2022-10-16T16:03:23;6;6;
43280;PMS5003;62175;49.416;8.690;2022-10-16T16:05:50;7;6;
43280;PMS5003;62175;49.416;8.690;2022-10-16T16:08:17;6;6;
43280;PMS5003;62175;49.416;8.690;2022-10-16T16:10:45;7;6;
43280;PMS5003;62175;49.416;8.690;2022-10-16T16:13:12;5;4;
43280;PMS5003;62175;49.416;8.690;2022-10-16T16:15:39;4;4;
43280;PMS5003;62175;49.416;8.690;2022-10-16T16:18:07;6;6;
43280;PMS5003;62175;49.416;8.690;2022-10-16T16:20:34;5;5;
43280;PMS5003;62175;49.416;8.690;2022-10-16T16:23:01;5;5;
43280;PMS5003;62175;49.416;8.690;2022-10-16T16:25:28;5;5;
43280;PMS5003;62175;49.416;8.690;2022-10-16T16:27:55;5;5;
43280;PMS5003;62175;49.416;8.690;2022-10-16T16:30:22;6;6;
43280;PMS5003;62175;49.416;8.690;2022-10-16T16:32:49;4;4;
43280;PMS5003;62175;49.416;8.690;2022-10-16T16:35:16;5;5;
43280;PMS5003;62175;49.416;8.690;2022-10-16T16:37:43;6;6;
43280;PMS5003;62175;49.416;8.690;2022-10-16T16:40:10;4;4;
43280;PMS5003;62175;49.416;8.690;2022-10-16T16:42:37;7;7;
43280;PMS5003;62175;49.416;8.690;2022-10-16T16:45:05;7;7;
43280;PMS5003;62175;49.416;8.690;2022-10-16T16:47:33;8;8;
43280;PMS5003;62175;49.416;8.690;2022-10-16T16:50:01;6;6;
43280;PMS5003;62175;49.416;8.690;2022-10-16T16:52:28;6;6;
43280;PMS5003;62175;49.416;8.690;2022-10-16T16:54:55;5;5;
43280;PMS5003;62175;49.416;8.690;2022-10-16T16:57:22;8;7;
43280;PMS5003;62175;49.416;8.690;2022-10-16T16:59:49;7;6;
43280;PMS5003;62175;49.416;8.690;2022-10-16T17:02:17;4;4;
43280;PMS5003;62175;49.416;8.690;2022-10-16T17:04:44;5;4;
43280;PMS5003;62175;49.416;8.690;2022-10-16T17:07:11;8;7;
43280;PMS5003;62175;49.416;8.690;2022-10-16T17:09:38;8;8;
43280;PMS5003;62175;49.416;8.690;2022-10-16T17:12:05;6;6;
43280;PMS5003;62175;49.416;8.690;2022-10-16T17:14:32;6;6;